createdAt,value
2022-08-20T00:02:55.649Z,16.70
2022-08-20T00:07:53.039Z,16.70
2022-08-20T00:12:51.183Z,16.70
2022-08-20T00:17:50.897Z,16.50
2022-08-20T00:22:48.719Z,16.30
2022-08-20T00:27:46.159Z,16.30
2022-08-20T00:32:44.969Z,16.30
2022-08-20T00:37:42.790Z,16.20
2022-08-20T00:42:43.609Z,16.30
2022-08-20T00:47:51.300Z,16.50
2022-08-20T00:52:52.029Z,16.50
2022-08-20T00:58:01.170Z,16.50
2022-08-20T01:03:00.810Z,16.40
2022-08-20T01:08:00.385Z,16.20
2022-08-20T01:12:59.953Z,16.00
2022-08-20T01:17:59.241Z,16.00
2022-08-20T01:23:25.149Z,16.00
2022-08-20T01:28:30.211Z,16.00
2022-08-20T01:33:30.036Z,15.90
2022-08-20T01:38:30.372Z,15.80
2022-08-20T01:43:28.771Z,15.80
2022-08-20T01:48:30.843Z,15.70
2022-08-20T01:53:38.182Z,15.60
2022-08-20T01:58:40.537Z,15.60
2022-08-20T02:03:42.950Z,15.50
2022-08-20T02:08:49.294Z,15.40
2022-08-20T02:13:52.835Z,15.40
2022-08-20T02:18:56.318Z,15.30
2022-08-20T02:23:56.435Z,15.50
2022-08-20T02:28:55.156Z,15.50
2022-08-20T02:34:14.722Z,15.40
2022-08-20T02:39:15.530Z,15.30
2022-08-20T02:44:13.195Z,15.10
2022-08-20T02:49:10.930Z,15.10
2022-08-20T02:54:11.226Z,15.20
2022-08-20T02:59:10.385Z,15.00
2022-08-20T03:04:18.656Z,15.00
2022-08-20T03:09:17.254Z,15.10
2022-08-20T03:14:18.240Z,15.10
2022-08-20T03:19:26.264Z,14.90
2022-08-20T03:24:25.366Z,14.90
2022-08-20T03:29:24.876Z,14.80
2022-08-20T03:34:23.685Z,14.80
2022-08-20T03:39:21.213Z,15.00
2022-08-20T03:44:19.397Z,15.00
2022-08-20T03:49:18.489Z,15.00
2022-08-20T03:54:16.420Z,14.70
2022-08-20T03:59:14.392Z,14.70
2022-08-20T04:04:12.876Z,14.70
2022-08-20T04:09:11.960Z,14.70
2022-08-20T04:14:11.915Z,14.70
2022-08-20T04:19:17.463Z,14.60
2022-08-20T04:24:22.174Z,14.60
2022-08-20T04:29:32.003Z,14.70
2022-08-20T04:34:40.853Z,14.60
2022-08-20T04:39:38.422Z,14.60
2022-08-20T04:44:40.032Z,14.60
2022-08-20T04:49:38.982Z,14.70
2022-08-20T04:54:38.380Z,14.90
2022-08-20T04:59:36.840Z,15.20
2022-08-20T05:04:35.622Z,15.40
2022-08-20T05:09:43.642Z,15.40
2022-08-20T05:14:42.677Z,15.50
2022-08-20T05:19:41.587Z,15.80
2022-08-20T05:24:39.858Z,15.90
2022-08-20T05:29:37.835Z,16.30
2022-08-20T05:34:35.472Z,16.40
2022-08-20T05:39:37.199Z,16.50
2022-08-20T05:44:37.731Z,16.70
2022-08-20T05:49:35.313Z,16.70
2022-08-20T05:54:33.283Z,16.90
2022-08-20T05:59:30.587Z,17.20
2022-08-20T06:04:31.231Z,17.90
2022-08-20T06:09:32.801Z,22.80
2022-08-20T06:14:31.562Z,26.10
2022-08-20T06:19:32.519Z,28.40
2022-08-20T06:24:30.828Z,28.50
2022-08-20T06:29:28.840Z,29.00
2022-08-20T06:34:30.979Z,26.20
2022-08-20T06:39:31.530Z,24.00
2022-08-20T06:44:29.134Z,22.70
2022-08-20T06:49:26.566Z,22.10
2022-08-20T06:54:28.646Z,21.80
2022-08-20T06:59:27.314Z,21.60
2022-08-20T07:04:26.340Z,21.20
2022-08-20T07:09:25.935Z,20.90
2022-08-20T07:14:23.175Z,20.50
2022-08-20T07:19:20.562Z,19.80
2022-08-20T07:24:17.865Z,19.80
2022-08-20T07:29:15.376Z,19.90
2022-08-20T07:34:13.970Z,19.70
2022-08-20T07:39:11.381Z,19.60
2022-08-20T07:44:09.306Z,19.70
2022-08-20T07:49:10.821Z,19.80
2022-08-20T07:54:08.176Z,19.80
2022-08-20T07:59:06.511Z,19.90
2022-08-20T08:04:04.881Z,20.30
2022-08-20T08:09:09.932Z,21.60
2022-08-20T08:14:10.278Z,22.10
2022-08-20T08:19:14.529Z,21.60
2022-08-20T08:24:16.687Z,21.30
2022-08-20T08:29:16.905Z,21.10
2022-08-20T08:34:14.255Z,21.60
2022-08-20T08:39:11.544Z,21.40
2022-08-20T08:44:13.169Z,20.80
2022-08-20T08:49:19.827Z,20.20
2022-08-20T08:54:20.328Z,19.70
2022-08-20T08:59:21.738Z,19.70
2022-08-20T09:04:23.525Z,19.50
2022-08-20T09:09:25.440Z,19.50
2022-08-20T09:14:26.930Z,19.50
2022-08-20T09:19:24.195Z,20.00
2022-08-20T09:24:21.510Z,20.10
2022-08-20T09:29:18.825Z,20.40
2022-08-20T09:34:16.275Z,20.70
2022-08-20T09:39:13.804Z,21.00
2022-08-20T09:44:11.561Z,21.60
2022-08-20T09:49:08.925Z,22.50
2022-08-20T09:54:08.346Z,23.10
2022-08-20T09:59:06.444Z,24.50
2022-08-20T10:04:04.295Z,25.80
2022-08-20T10:09:03.875Z,25.10
2022-08-20T10:14:01.194Z,24.90
2022-08-20T10:18:58.690Z,25.20
2022-08-20T10:23:55.941Z,25.90
2022-08-20T10:28:53.377Z,25.80
2022-08-20T10:33:50.660Z,25.10
2022-08-20T10:38:49.295Z,24.20
2022-08-20T10:43:46.702Z,23.70
2022-08-20T10:48:44.570Z,23.80
2022-08-20T10:53:42.240Z,23.90
2022-08-20T10:58:40.057Z,23.90
2022-08-20T11:03:38.903Z,23.70
2022-08-20T11:08:36.478Z,23.70
2022-08-20T11:13:35.538Z,24.10
2022-08-20T11:18:33.485Z,24.40
2022-08-20T11:23:30.797Z,24.70
2022-08-20T11:28:33.323Z,24.70
2022-08-20T11:33:30.696Z,25.50
2022-08-20T11:38:28.354Z,25.80
2022-08-20T11:43:25.681Z,26.00
2022-08-20T11:48:23.761Z,25.80
2022-08-20T11:53:22.251Z,25.80
2022-08-20T11:58:20.034Z,25.50
2022-08-20T12:03:18.806Z,25.40
2022-08-20T12:08:25.296Z,25.40
2022-08-20T12:13:30.945Z,25.90
2022-08-20T12:18:44.573Z,25.60
2022-08-20T12:23:41.902Z,25.50
2022-08-20T12:28:39.132Z,25.20
2022-08-20T12:33:36.658Z,24.70
2022-08-20T12:38:34.110Z,24.60
2022-08-20T12:43:31.506Z,24.40
2022-08-20T12:48:28.736Z,24.80
2022-08-20T12:53:26.025Z,25.30
2022-08-20T12:58:28.247Z,25.60
2022-08-20T13:03:26.160Z,25.60
2022-08-20T13:08:23.966Z,25.80
2022-08-20T13:13:21.320Z,25.70
2022-08-20T13:18:19.405Z,26.10
2022-08-20T13:23:17.375Z,26.00
2022-08-20T13:28:14.728Z,25.60
2022-08-20T13:33:12.066Z,25.50
2022-08-20T13:38:09.371Z,24.90
2022-08-20T13:43:11.724Z,24.80
2022-08-20T13:48:14.494Z,24.90
2022-08-20T13:53:12.690Z,25.00
2022-08-20T13:58:10.458Z,24.80
2022-08-20T14:03:08.031Z,24.70
2022-08-20T14:08:11.780Z,24.60
2022-08-20T14:13:13.325Z,24.80
2022-08-20T14:18:14.517Z,24.70
2022-08-20T14:23:11.840Z,24.50
2022-08-20T14:28:22.918Z,24.40
2022-08-20T14:33:26.922Z,24.30
2022-08-20T14:38:24.270Z,24.30
2022-08-20T14:43:21.555Z,24.20
2022-08-20T14:48:18.979Z,24.30
2022-08-20T14:53:16.231Z,24.10
2022-08-20T14:58:15.539Z,24.00
2022-08-20T15:03:13.669Z,24.00
2022-08-20T15:08:11.831Z,24.10
2022-08-20T15:13:09.319Z,23.80
2022-08-20T15:18:07.094Z,23.50
2022-08-20T15:23:05.644Z,23.40
2022-08-20T15:28:04.753Z,23.40
2022-08-20T15:33:03.152Z,23.30
2022-08-20T15:38:01.127Z,23.20
2022-08-20T15:42:59.759Z,23.10
2022-08-20T15:48:15.578Z,23.40
2022-08-20T15:53:37.319Z,23.40
2022-08-20T15:58:52.738Z,23.40
2022-08-20T16:04:17.879Z,23.30
2022-08-20T16:09:34.294Z,23.20
2022-08-20T16:14:37.236Z,23.10
2022-08-20T16:19:58.470Z,23.10
2022-08-20T16:24:56.575Z,22.90
2022-08-20T16:29:57.707Z,22.90
2022-08-20T16:35:18.240Z,22.80
2022-08-20T16:40:33.587Z,22.70
2022-08-20T16:45:45.593Z,22.50
2022-08-20T16:51:15.033Z,22.40
2022-08-20T16:56:13.278Z,22.30
2022-08-20T17:01:13.649Z,22.00
2022-08-20T17:06:19.921Z,21.90
2022-08-20T17:11:37.355Z,21.70
2022-08-20T17:16:41.965Z,21.70
2022-08-20T17:21:40.456Z,21.50
2022-08-20T17:26:49.846Z,21.50
2022-08-20T17:32:20.638Z,21.30
2022-08-20T17:37:27.092Z,21.20
2022-08-20T17:42:27.187Z,21.10
2022-08-20T17:47:28.686Z,21.10
2022-08-20T17:52:30.728Z,20.90
2022-08-20T17:57:37.138Z,20.90
2022-08-20T18:02:35.230Z,20.80
2022-08-20T18:07:59.605Z,20.70
2022-08-20T18:13:19.850Z,20.70
2022-08-20T18:18:42.654Z,20.50
2022-08-20T18:24:05.151Z,20.30
2022-08-20T18:29:13.894Z,20.30
2022-08-20T18:34:15.756Z,20.40
2022-08-20T18:39:35.284Z,20.30
2022-08-20T18:44:44.205Z,20.20
2022-08-20T18:49:42.771Z,20.10
2022-08-20T18:54:53.081Z,20.00
2022-08-20T18:59:56.394Z,20.10
2022-08-20T19:05:02.579Z,20.10
2022-08-20T19:10:41.689Z,19.80
2022-08-20T19:15:45.308Z,19.80
2022-08-20T19:20:56.075Z,19.70
2022-08-20T19:25:58.453Z,19.50
2022-08-20T19:30:56.924Z,19.50
2022-08-20T19:35:55.845Z,19.40
2022-08-20T19:40:54.021Z,19.40
2022-08-20T19:46:09.186Z,19.30
2022-08-20T19:51:23.781Z,19.40
2022-08-20T19:56:26.950Z,19.40
2022-08-20T20:01:24.272Z,19.30
2022-08-20T20:06:22.037Z,19.20
2022-08-20T20:11:21.883Z,19.20
2022-08-20T20:16:21.625Z,19.30
2022-08-20T20:21:25.749Z,19.30
2022-08-20T20:26:24.512Z,19.30
2022-08-20T20:31:28.605Z,19.30
2022-08-20T20:36:44.289Z,19.10
2022-08-20T20:41:52.505Z,19.10
2022-08-20T20:47:00.479Z,19.10
2022-08-20T20:52:14.903Z,18.90
2022-08-20T20:57:18.741Z,19.00
2022-08-20T21:02:30.049Z,18.90
2022-08-20T21:07:27.372Z,19.00
2022-08-20T21:12:25.735Z,18.90
2022-08-20T21:17:23.622Z,18.70
2022-08-20T21:22:21.103Z,18.60
2022-08-20T21:27:24.711Z,18.70
2022-08-20T21:32:22.185Z,18.70
2022-08-20T21:37:19.676Z,18.70
2022-08-20T21:42:29.106Z,18.70
2022-08-20T21:47:27.238Z,18.60
2022-08-20T21:52:25.827Z,18.50
2022-08-20T21:57:29.282Z,18.50
2022-08-20T22:02:27.327Z,18.40
2022-08-20T22:07:24.603Z,18.30
2022-08-20T22:12:25.221Z,18.20
2022-08-20T22:17:22.598Z,18.40
2022-08-20T22:22:21.378Z,18.20
2022-08-20T22:27:18.789Z,18.20
2022-08-20T22:32:16.240Z,18.20
2022-08-20T22:37:16.128Z,18.20
2022-08-20T22:42:13.375Z,18.10
2022-08-20T22:47:12.403Z,18.10
2022-08-20T22:52:11.594Z,18.10
2022-08-20T22:57:09.113Z,18.00
2022-08-20T23:02:12.113Z,17.90
2022-08-20T23:07:11.651Z,17.80
2022-08-20T23:12:10.672Z,17.80
2022-08-20T23:17:13.602Z,17.80
2022-08-20T23:22:12.652Z,17.90
2022-08-20T23:27:14.463Z,17.90
2022-08-20T23:32:23.737Z,17.80
2022-08-20T23:37:21.052Z,17.80
2022-08-20T23:42:18.462Z,17.80
2022-08-20T23:47:21.172Z,17.90
2022-08-20T23:52:18.682Z,17.70
2022-08-20T23:57:16.884Z,17.60
